Time;durP1;ratioP1;P1;durP2;ratioP2;P2;SDS_P1;SDS_P2;PMS_P1;PMS_P2;Temp;Humidity;BMP_temperature;BMP_pressure;BME280_temperature;BME280_humidity;BME280_pressure;Samples;Min_cycle;Max_cycle;Signal;HPM_P1;HPM_P2
2023/01/11 00:04:28;;;;;;;0.30;0.30;;;;;;;4.10;82.74;100684.28;5233014;23;20131;-86
2023/01/11 00:06:55;;;;;;;1.33;0.63;;;;;;;4.17;82.91;100690.97;4901380;29;20508;-86
2023/01/11 00:09:20;;;;;;;2.08;0.82;;;;;;;4.14;83.04;100696.16;4902313;29;20108;-87
2023/01/11 00:30:04;;;;;;;2.80;0.95;;;;;;;5.31;77.30;100736.13;5128336;27;20924;-87
2023/01/11 00:32:30;;;;;;;1.05;0.55;;;;;;;5.21;78.06;100744.94;5090263;28;20040;-86
2023/01/11 00:34:55;;;;;;;0.77;0.63;;;;;;;5.04;78.09;100739.38;5090099;28;20081;-86
2023/01/11 00:37:21;;;;;;;1.85;0.88;;;;;;;5.05;78.88;100764.13;5090407;28;20371;-86
2023/01/11 00:39:46;;;;;;;1.95;1.30;;;;;;;5.04;78.83;100767.59;5073134;28;20031;-86
2023/01/11 00:50:24;;;;;;;1.17;0.60;;;;;;;4.95;81.39;100794.28;5092172;28;20101;-86
2023/01/11 00:52:50;;;;;;;0.38;0.38;;;;;;;4.85;80.92;100775.69;5073040;28;20470;-86
2023/01/11 00:55:15;;;;;;;1.60;1.08;;;;;;;5.05;79.73;100807.72;5089855;28;20077;-86
2023/01/11 00:57:41;;;;;;;0.30;0.30;;;;;;;5.01;80.47;100809.50;5089842;28;20081;-87
2023/01/11 01:00:07;;;;;;;4.43;1.42;;;;;;;5.05;80.85;100812.84;5072659;28;20043;-87
2023/01/11 01:02:33;;;;;;;1.05;0.60;;;;;;;5.03;80.42;100812.06;5056295;28;20019;-86
2023/01/11 01:04:59;;;;;;;0.93;0.40;;;;;;;5.03;80.05;100814.63;5089405;28;20509;-87
2023/01/11 01:07:24;;;;;;;1.08;0.60;;;;;;;4.94;80.31;100807.13;5056127;28;20524;-87
2023/01/11 01:09:50;;;;;;;1.60;0.45;;;;;;;5.17;79.31;100838.19;5089631;28;20039;-86
2023/01/11 01:14:24;;;;;;;0.50;0.50;;;;;;;5.10;78.66;100834.94;5089642;28;20039;-87
2023/01/11 01:15:01;;;;;;;0.40;0.40;;;;;;;5.14;79.60;100828.03;5092017;28;20127;-86
2023/01/11 01:17:26;;;;;;;0.93;0.60;;;;;;;5.11;78.73;100835.78;5089178;28;20459;-87
2023/01/11 01:19:52;;;;;;;1.58;0.85;;;;;;;5.15;79.79;100837.41;5072366;28;20023;-86
2023/01/11 01:22:17;;;;;;;0.45;0.40;;;;;;;5.13;80.12;100837.44;5089419;28;20482;-87
2023/01/11 01:24:43;;;;;;;0.85;0.80;;;;;;;4.99;78.53;100828.38;5089066;28;20074;-87
2023/01/11 01:27:08;;;;;;;2.15;1.08;;;;;;;5.21;79.16;100842.41;5089263;28;20028;-87
2023/01/11 01:29:34;;;;;;;0.55;0.45;;;;;;;5.22;79.20;100856.91;5083327;28;20513;-87
2023/01/11 01:31:59;;;;;;;0.50;0.50;;;;;;;5.33;79.57;100866.91;5075407;28;20033;-87
2023/01/11 01:34:25;;;;;;;0.50;0.47;;;;;;;5.18;80.00;100852.72;5075660;28;20033;-87
2023/01/11 01:36:50;;;;;;;0.55;0.47;;;;;;;5.28;79.37;100872.13;5075889;28;20085;-87
2023/01/11 01:39:16;;;;;;;0.60;0.60;;;;;;;5.26;79.27;100876.47;5075512;28;20039;-86
2023/01/11 01:41:41;;;;;;;0.25;0.25;;;;;;;5.11;79.22;100851.16;5058750;28;20024;-86
2023/01/11 01:44:44;;;;;;;0.43;0.40;;;;;;;5.24;80.18;100883.38;5075186;28;20028;-87
2023/01/11 01:47:10;;;;;;;0.60;0.60;;;;;;;5.13;80.67;100870.78;5093138;28;20113;-88
2023/01/11 01:49:35;;;;;;;0.50;0.47;;;;;;;5.19;80.73;100880.88;5075382;28;20089;-87
2023/01/11 01:52:01;;;;;;;0.75;0.57;;;;;;;5.17;81.13;100868.97;5058621;28;20028;-87
2023/01/11 01:54:28;;;;;;;0.80;0.60;;;;;;;5.06;81.23;100853.00;5075281;28;20048;-87
2023/01/11 01:56:57;;;;;;;0.65;0.63;;;;;;;4.81;80.07;100814.22;5058810;28;20043;-87
2023/01/11 01:59:23;;;;;;;1.40;0.63;;;;;;;5.11;80.08;100861.41;5075167;28;20766;-86
2023/01/11 02:01:49;;;;;;;0.65;0.40;;;;;;;5.19;81.07;100880.03;5074822;28;20081;-87
2023/01/11 02:04:23;;;;;;;1.02;0.80;;;;;;;5.05;80.93;100861.56;5075370;28;20028;-87
2023/01/11 02:06:50;;;;;;;1.25;0.65;;;;;;;5.14;80.21;100871.63;5092881;28;20024;-86
2023/01/11 02:09:55;;;;;;;0.55;0.55;;;;;;;5.09;80.56;100861.44;5058514;28;20108;-86
2023/01/11 02:12:21;;;;;;;0.35;0.35;;;;;;;4.98;80.73;100871.13;5061124;28;20066;-86
2023/01/11 02:14:47;;;;;;;1.05;0.77;;;;;;;4.62;81.02;100826.59;5074883;28;20028;-87
2023/01/11 02:17:12;;;;;;;0.88;0.68;;;;;;;5.00;80.89;100901.84;5057707;28;20024;-87
2023/01/11 02:20:06;;;;;;;0.40;0.40;;;;;;;5.03;81.51;100910.34;5074727;28;20058;-87
2023/01/11 02:22:31;;;;;;;0.40;0.40;;;;;;;4.82;81.09;100880.88;5093127;28;20059;-86
2023/01/11 02:24:59;;;;;;;1.15;0.52;;;;;;;5.07;81.71;100927.31;5092726;28;20063;-86
2023/01/11 02:27:47;;;;;;;0.95;0.60;;;;;;;5.05;82.00;100929.09;5092391;28;20020;-87
2023/01/11 02:30:18;;;;;;;0.38;0.35;;;;;;;4.93;81.72;100919.09;5073957;28;20032;-87
2023/01/11 02:32:52;;;;;;;0.40;0.40;;;;;;;5.17;81.00;100948.50;5074306;28;20475;-87
2023/01/11 02:35:41;;;;;;;0.30;0.30;;;;;;;5.16;80.55;100951.94;5074347;28;20027;-86
2023/01/11 02:38:21;;;;;;;3.15;0.82;;;;;;;4.91;79.70;100908.00;5074012;28;20024;-86
2023/01/11 02:40:49;;;;;;;6.72;4.97;;;;;;;4.96;79.53;100910.50;5058149;28;20026;-86
2023/01/11 02:46:50;;;;;;;2.15;0.90;;;;;;;5.03;79.46;100935.13;5063749;28;20483;-86
2023/01/11 02:49:27;;;;;;;1.00;0.85;;;;;;;4.97;79.72;100932.69;5086715;28;20067;-86
2023/01/11 02:51:59;;;;;;;1.80;1.33;;;;;;;4.80;79.49;100923.63;5091792;28;20496;-86
2023/01/11 02:54:25;;;;;;;0.82;0.82;;;;;;;4.87;80.37;100925.19;5057565;28;20027;-86
2023/01/11 02:56:53;;;;;;;11.80;2.70;;;;;;;4.88;79.95;100937.13;5074104;28;20553;-87
2023/01/11 02:59:23;;;;;;;9.60;3.55;;;;;;;4.74;80.32;100934.00;5040586;28;20395;-87
2023/01/11 03:01:51;;;;;;;0.57;0.57;;;;;;;4.71;79.75;100943.47;5057418;28;20028;-86
2023/01/11 03:04:34;;;;;;;3.22;2.83;;;;;;;4.61;80.89;100928.25;5057576;28;20042;-87
2023/01/11 03:07:27;;;;;;;2.92;1.92;;;;;;;4.65;80.11;100951.28;5058371;28;20517;-86
2023/01/11 03:09:55;;;;;;;2.20;1.98;;;;;;;4.65;80.41;100964.94;5092050;28;20081;-86
2023/01/11 03:13:02;;;;;;;1.15;1.05;;;;;;;4.69;79.80;100966.56;5091497;28;20502;-86
2023/01/11 03:15:45;;;;;;;2.38;1.20;;;;;;;4.63;80.12;100956.44;5062831;28;20086;-86
2023/01/11 03:18:27;;;;;;;1.10;1.00;;;;;;;4.73;80.33;100967.38;5073670;28;20459;-86
2023/01/11 03:21:15;;;;;;;0.53;0.53;;;;;;;4.67;80.39;100983.69;5074643;28;20032;-86
2023/01/11 03:23:46;;;;;;;0.28;0.28;;;;;;;4.69;79.99;100976.81;5078095;28;20399;-88
2023/01/11 03:26:33;;;;;;;0.68;0.68;;;;;;;4.68;79.12;100981.97;5091756;28;20032;-86
2023/01/11 03:29:05;;;;;;;0.70;0.52;;;;;;;4.65;80.05;100990.56;5090836;28;20052;-85
2023/01/11 03:31:43;;;;;;;0.40;0.40;;;;;;;4.63;79.40;100981.22;5073461;28;20024;-87
2023/01/11 03:34:38;;;;;;;1.98;1.02;;;;;;;4.61;79.72;100992.31;5073602;28;20024;-87
2023/01/11 03:37:24;;;;;;;2.58;1.73;;;;;;;4.67;79.60;100993.09;5072668;28;20043;-87
2023/01/11 03:40:02;;;;;;;1.75;1.42;;;;;;;4.69;78.97;100994.75;5072957;28;20035;-87
2023/01/11 03:42:28;;;;;;;1.50;0.57;;;;;;;4.67;78.95;100999.06;5073388;28;20031;-88
2023/01/11 03:44:54;;;;;;;0.95;0.70;;;;;;;4.81;78.90;101006.47;5056636;28;20485;-87
2023/01/11 03:47:22;;;;;;;0.82;0.52;;;;;;;4.72;79.04;100996.41;5056385;28;20031;-87
2023/01/11 03:49:52;;;;;;;1.35;0.68;;;;;;;4.69;79.58;101002.44;5039986;28;20035;-86
2023/01/11 03:52:21;;;;;;;0.45;0.45;;;;;;;4.76;79.16;101009.16;5039908;28;20081;-86
2023/01/11 03:54:47;;;;;;;1.48;0.70;;;;;;;4.75;78.46;101024.56;5040043;28;20478;-86
2023/01/11 03:57:14;;;;;;;0.75;0.57;;;;;;;4.65;78.44;101005.94;5055953;28;20024;-86
2023/01/11 03:59:40;;;;;;;0.55;0.40;;;;;;;4.76;78.43;101024.53;5072575;28;20036;-89
2023/01/11 04:02:36;;;;;;;0.68;0.40;;;;;;;4.95;78.94;101035.28;5056151;28;20028;-87
2023/01/11 04:05:02;;;;;;;0.40;0.38;;;;;;;4.86;78.56;101043.16;5065574;28;20077;-86
2023/01/11 04:07:27;;;;;;;0.40;0.40;;;;;;;4.70;78.82;101034.88;5039679;28;20028;-86
2023/01/11 04:09:53;;;;;;;0.40;0.40;;;;;;;4.79;79.09;101034.72;5072882;28;20407;-87
2023/01/11 04:12:18;;;;;;;0.40;0.40;;;;;;;5.00;78.57;101053.13;5055971;28;20472;-85
2023/01/11 04:14:44;;;;;;;0.55;0.30;;;;;;;4.93;78.47;101054.13;5072954;28;20046;-86
2023/01/11 04:17:09;;;;;;;0.40;0.40;;;;;;;4.96;78.27;101036.13;5056005;28;20563;-87
2023/01/11 04:19:35;;;;;;;0.22;0.22;;;;;;;4.98;77.29;101060.84;5055946;28;20036;-86
2023/01/11 04:22:00;;;;;;;1.05;0.45;;;;;;;4.88;77.71;101055.06;5072537;28;20043;-86
2023/01/11 04:24:26;;;;;;;0.57;0.35;;;;;;;4.63;77.73;101035.03;5056097;28;20028;-87
2023/01/11 04:26:51;;;;;;;1.27;0.77;;;;;;;4.75;78.08;101061.28;5090772;28;20028;-86
2023/01/11 04:29:17;;;;;;;1.25;0.57;;;;;;;4.84;78.16;101068.81;5090340;28;20048;-86
2023/01/11 04:31:42;;;;;;;0.80;0.80;;;;;;;4.87;78.54;101089.25;5068082;28;20505;-86
2023/01/11 04:34:08;;;;;;;1.88;1.67;;;;;;;4.90;78.21;101083.22;5072755;28;20505;-88
2023/01/11 04:36:33;;;;;;;1.73;1.17;;;;;;;4.90;78.40;101083.22;5072695;28;20071;-87
2023/01/11 04:38:59;;;;;;;2.47;1.23;;;;;;;4.87;78.07;101083.28;5072339;28;20028;-85
2023/01/11 04:44:08;;;;;;;2.72;2.25;;;;;;;4.80;77.77;101061.19;5089939;28;20496;-85
2023/01/11 04:46:34;;;;;;;2.30;1.55;;;;;;;4.77;77.92;101056.97;5072297;28;20063;-85
2023/01/11 04:48:59;;;;;;;2.17;1.45;;;;;;;4.81;78.56;101057.75;5055081;28;20035;-85
2023/01/11 04:51:25;;;;;;;2.53;1.73;;;;;;;4.93;77.58;101082.34;5089965;28;20028;-85
2023/01/11 04:53:50;;;;;;;2.97;1.67;;;;;;;4.83;77.37;101064.56;5072245;28;20493;-86
2023/01/11 04:56:16;;;;;;;1.90;1.58;;;;;;;4.88;77.37;101084.97;5089966;28;20024;-86
2023/01/11 04:58:42;;;;;;;3.42;3.03;;;;;;;4.92;77.22;101086.63;5072321;28;20032;-85
2023/01/11 05:01:11;;;;;;;5.63;3.63;;;;;;;4.80;77.82;101087.66;5055811;28;20032;-88
2023/01/11 05:03:37;;;;;;;3.00;2.05;;;;;;;4.71;78.07;101077.56;5069446;28;20035;-88
2023/01/11 05:06:02;;;;;;;2.47;2.05;;;;;;;4.77;78.79;101103.09;5095692;28;20027;-87
2023/01/11 05:08:28;;;;;;;2.88;2.00;;;;;;;4.80;79.32;101103.03;5096783;28;20024;-89
2023/01/11 05:10:55;;;;;;;2.95;2.22;;;;;;;4.87;78.84;101114.88;5079779;28;20410;-90
2023/01/11 05:13:20;;;;;;;4.03;1.80;;;;;;;4.89;79.60;101108.00;5079874;28;20486;-89
2023/01/11 05:15:46;;;;;;;2.33;1.60;;;;;;;4.99;79.24;101112.97;5057117;28;20038;-93
2023/01/11 05:18:12;;;;;;;2.00;1.80;;;;;;;5.02;77.33;101098.41;5023564;28;20035;-92
2023/01/11 05:20:37;;;;;;;3.05;2.03;;;;;;;5.06;77.78;101114.56;5023257;28;20025;-88
2023/01/11 05:23:03;;;;;;;2.22;1.65;;;;;;;5.03;78.12;101105.22;5044039;28;20039;-87
2023/01/11 05:25:28;;;;;;;1.50;1.13;;;;;;;4.96;78.02;101107.91;5075683;28;20119;-90
2023/01/11 05:27:54;;;;;;;3.00;2.63;;;;;;;4.98;78.15;101111.28;5045546;28;20029;-86
2023/01/11 05:30:19;;;;;;;4.53;2.75;;;;;;;5.07;78.16;101121.38;5077009;28;20036;-89
2023/01/11 05:32:45;;;;;;;2.65;1.58;;;;;;;4.99;77.30;101129.22;5071610;28;20113;-85
2023/01/11 05:35:10;;;;;;;3.05;2.15;;;;;;;5.06;77.85;101137.66;5058911;28;20035;-84
2023/01/11 05:37:37;;;;;;;5.00;2.88;;;;;;;5.09;77.77;101140.16;5057492;28;20028;-93
2023/01/11 05:40:04;;;;;;;4.07;2.85;;;;;;;5.10;78.52;101141.84;5060260;28;20032;-86
2023/01/11 05:42:30;;;;;;;2.42;2.08;;;;;;;5.09;77.70;101145.28;5062293;28;20082;-84
2023/01/11 05:47:39;;;;;;;7.30;2.13;;;;;;;5.07;78.29;101141.91;5079197;28;20486;-90
2023/01/11 05:50:05;;;;;;;3.97;2.80;;;;;;;5.09;78.05;101146.13;5022531;28;20049;-86
2023/01/11 05:52:30;;;;;;;2.88;1.98;;;;;;;4.99;77.47;101129.22;5033496;28;20025;-87
2023/01/11 05:54:57;;;;;;;2.10;1.30;;;;;;;5.21;76.80;101160.47;5034306;28;20033;-91
2023/01/11 05:57:22;;;;;;;1.33;1.23;;;;;;;5.13;76.50;101163.16;5034494;28;20074;-90
2023/01/11 05:59:51;;;;;;;3.58;1.90;;;;;;;5.21;77.49;101174.97;5038567;28;20115;-93
2023/01/11 06:02:17;;;;;;;3.95;2.05;;;;;;;5.07;77.87;101168.38;5035350;28;20026;-92
2023/01/11 06:04:42;;;;;;;2.95;2.65;;;;;;;5.03;77.10;101166.75;5015097;28;20502;-90
2023/01/11 06:07:08;;;;;;;3.55;2.35;;;;;;;5.13;77.19;101190.53;5017184;28;20033;-93
2023/01/11 06:09:36;;;;;;;7.22;2.30;;;;;;;5.21;76.92;101192.94;5026236;28;20025;-94
2023/01/11 06:12:02;;;;;;;2.55;2.30;;;;;;;5.09;76.42;101182.03;5050441;28;20468;-86
2023/01/11 06:14:27;;;;;;;3.42;1.65;;;;;;;5.18;77.62;101199.81;5049249;28;20108;-92
2023/01/11 06:16:53;;;;;;;2.47;1.70;;;;;;;5.09;76.66;101176.06;5034966;28;20037;-93
2023/01/11 06:19:19;;;;;;;5.45;2.90;;;;;;;5.23;76.21;101207.44;5051564;28;20029;-88
2023/01/11 06:21:44;;;;;;;4.35;2.22;;;;;;;5.16;76.78;101201.56;5056418;28;20024;-88
2023/01/11 06:24:10;;;;;;;5.88;2.78;;;;;;;4.94;77.32;101174.59;5055357;28;20507;-85
2023/01/11 06:26:36;;;;;;;7.78;5.35;;;;;;;5.25;76.82;101204.84;5034919;28;20483;-90
2023/01/11 06:29:02;;;;;;;8.45;6.10;;;;;;;5.29;76.20;101219.31;5047792;28;20052;-87
2023/01/11 06:31:27;;;;;;;8.05;5.40;;;;;;;5.28;76.96;101221.03;5021788;28;20110;-88
2023/01/11 06:33:53;;;;;;;9.77;5.35;;;;;;;5.23;76.04;101215.16;5004833;28;20056;-86
2023/01/11 06:36:19;;;;;;;7.72;5.55;;;;;;;5.21;76.52;101216.91;5031198;28;20036;-93
2023/01/11 06:38:45;;;;;;;4.63;2.67;;;;;;;5.17;76.78;101221.22;5047460;28;20040;-91
2023/01/11 06:41:10;;;;;;;2.83;2.25;;;;;;;5.02;75.87;101200.13;5035252;28;20032;-88
2023/01/11 06:43:36;;;;;;;3.25;2.60;;;;;;;5.13;77.04;101229.00;5028869;28;20099;-87
2023/01/11 06:46:03;;;;;;;2.92;2.13;;;;;;;5.18;76.08;101238.28;5040438;28;20098;-93
2023/01/11 06:48:28;;;;;;;4.88;3.30;;;;;;;5.10;76.55;101226.47;5174494;23;20148;-89
2023/01/11 06:50:55;;;;;;;8.27;4.25;;;;;;;5.03;76.49;101233.44;5015129;28;20381;-91
2023/01/11 06:53:21;;;;;;;5.60;3.75;;;;;;;5.13;76.30;101239.25;5012042;28;20484;-91
2023/01/11 06:55:54;;;;;;;15.13;2.70;;;;;;;5.14;76.46;101251.22;5014367;28;20026;-90
2023/01/11 06:58:19;;;;;;;;;;;;;;;5.07;76.88;101252.19;5021477;28;20415;-93
2023/01/11 07:00:45;;;;;;;2.38;1.33;;;;;;;4.98;77.52;101242.06;5014286;28;19913;-90
2023/01/11 07:03:11;;;;;;;6.13;2.00;;;;;;;5.10;77.27;101264.94;5029561;28;20036;-89
2023/01/11 07:05:37;;;;;;;5.35;3.17;;;;;;;5.19;77.07;101269.91;5009726;28;20405;-90
2023/01/11 07:08:03;;;;;;;4.20;1.50;;;;;;;5.03;77.12;101238.56;5017129;28;20030;-88
2023/01/11 07:10:28;;;;;;;3.28;1.52;;;;;;;5.00;77.09;101222.38;5014298;28;20056;-89
2023/01/11 07:12:54;;;;;;;3.75;2.25;;;;;;;5.21;77.23;101257.94;5011999;28;20062;-91
2023/01/11 07:15:19;;;;;;;4.50;2.28;;;;;;;5.21;76.95;101278.47;5009709;28;20507;-90
2023/01/11 07:17:46;;;;;;;2.85;2.17;;;;;;;5.20;77.62;101281.88;5001189;28;20053;-94
2023/01/11 07:20:12;;;;;;;3.83;1.95;;;;;;;5.28;76.70;101289.44;5000025;28;20029;-91
2023/01/11 07:22:37;;;;;;;2.30;1.70;;;;;;;5.32;77.24;101297.09;5028526;28;20028;-90
2023/01/11 07:25:04;;;;;;;3.33;1.23;;;;;;;5.41;76.62;101296.94;5025690;28;20045;-91
2023/01/11 07:27:30;;;;;;;2.30;1.65;;;;;;;5.29;76.46;101293.72;5014198;28;20021;-94
2023/01/11 07:29:58;;;;;;;3.22;1.95;;;;;;;5.30;77.10;101309.06;5030947;28;20033;-86
2023/01/11 07:32:26;;;;;;;2.97;2.45;;;;;;;5.28;76.69;101308.25;5000210;28;20037;-91
2023/01/11 07:34:52;;;;;;;3.80;2.70;;;;;;;5.19;77.05;101301.53;5004923;28;20022;-85
2023/01/11 07:37:17;;;;;;;1.20;1.10;;;;;;;5.26;77.67;101315.13;5008307;28;21030;-90
2023/01/11 07:39:43;;;;;;;2.38;1.42;;;;;;;5.35;77.09;101317.56;4991792;28;20085;-95
2023/01/11 07:44:53;;;;;;;4.38;3.13;;;;;;;5.45;76.60;101324.22;5016070;28;20040;-87
2023/01/11 07:47:19;;;;;;;15.98;3.80;;;;;;;5.33;77.16;101309.03;5012387;28;20033;-88
2023/01/11 07:49:45;;;;;;;3.92;2.80;;;;;;;5.12;77.04;101286.31;5011715;28;20520;-85
2023/01/11 07:52:10;;;;;;;2.67;2.15;;;;;;;5.32;77.40;101320.19;4996925;28;20033;-92
2023/01/11 07:54:35;;;;;;;2.67;1.55;;;;;;;5.33;77.23;101329.56;4994765;28;20053;-89
2023/01/11 07:57:02;;;;;;;6.40;2.08;;;;;;;5.40;76.86;101331.13;5011689;28;20018;-90
2023/01/11 07:59:27;;;;;;;8.23;2.63;;;;;;;5.45;77.10;101334.50;5019681;28;20057;-94
2023/01/11 08:01:53;;;;;;;1.83;1.63;;;;;;;5.58;77.28;101349.69;5028495;28;20033;-92
2023/01/11 08:04:19;;;;;;;3.38;1.77;;;;;;;5.60;77.04;101342.78;5010030;28;20038;-86
2023/01/11 08:06:44;;;;;;;3.45;1.75;;;;;;;5.52;76.30;101331.84;5014602;28;20056;-87
2023/01/11 08:09:10;;;;;;;2.72;1.58;;;;;;;5.59;76.95;101341.09;4997106;28;20554;-87
2023/01/11 08:14:39;;;;;;;2.13;1.25;;;;;;;5.76;75.94;101364.78;5020060;28;20104;-91
2023/01/11 08:17:05;;;;;;;4.75;1.77;;;;;;;5.61;75.63;101352.22;5006529;28;20032;-89
2023/01/11 08:19:31;;;;;;;1.85;1.55;;;;;;;5.63;76.09;101350.47;4983971;28;20437;-87
2023/01/11 08:21:56;;;;;;;2.60;1.75;;;;;;;5.68;75.78;101353.78;5020122;28;20021;-86
2023/01/11 08:24:22;;;;;;;2.90;1.85;;;;;;;5.73;76.23;101365.69;5013137;28;20060;-86
2023/01/11 08:26:47;;;;;;;9.07;2.65;;;;;;;5.87;74.90;101378.28;4995124;28;20472;-90
2023/01/11 08:29:13;;;;;;;1.88;1.65;;;;;;;5.95;75.53;101380.75;5017451;28;20065;-90
2023/01/11 08:31:42;;;;;;;5.13;2.90;;;;;;;5.86;75.52;101363.75;5026436;28;20029;-93
2023/01/11 08:34:08;;;;;;;1.58;1.35;;;;;;;5.97;75.06;101379.00;5010763;28;20052;-91
2023/01/11 08:36:34;;;;;;;5.18;2.35;;;;;;;5.99;75.44;101388.34;5017345;28;20034;-88
2023/01/11 08:39:00;;;;;;;2.70;1.80;;;;;;;6.11;74.71;101407.00;5001978;28;20060;-95
2023/01/11 08:41:26;;;;;;;4.13;2.08;;;;;;;5.91;75.76;101371.41;5026757;28;20029;-85
2023/01/11 08:43:52;;;;;;;2.67;1.58;;;;;;;6.20;75.50;101412.84;5032798;28;20150;-86
2023/01/11 08:46:17;;;;;;;1.40;1.30;;;;;;;6.11;74.11;101414.72;5008304;28;20031;-84
2023/01/11 08:48:45;;;;;;;2.25;1.35;;;;;;;6.11;74.58;101412.16;5001596;28;20136;-92
2023/01/11 08:51:11;;;;;;;3.53;2.10;;;;;;;6.16;74.14;101430.88;5026287;28;20101;-86
2023/01/11 08:53:36;;;;;;;6.20;2.33;;;;;;;6.19;73.99;101428.25;4996663;28;20108;-94
2023/01/11 08:56:02;;;;;;;2.40;1.58;;;;;;;6.10;74.06;101411.31;4998984;28;20030;-87
2023/01/11 08:58:27;;;;;;;2.50;2.13;;;;;;;6.03;74.20;101400.28;5006428;28;20063;-87
2023/01/11 09:00:56;;;;;;;2.53;2.33;;;;;;;6.19;74.91;101435.97;5004140;28;20037;-94
2023/01/11 09:03:22;;;;;;;3.80;2.40;;;;;;;6.13;74.96;101426.66;5021208;28;20560;-93
2023/01/11 09:05:47;;;;;;;7.28;1.90;;;;;;;6.12;74.58;101439.53;4997282;28;20477;-91
2023/01/11 09:08:13;;;;;;;5.35;2.88;;;;;;;6.10;73.77;101436.16;4997114;28;20041;-86
2023/01/11 09:10:38;;;;;;;2.38;2.17;;;;;;;6.12;74.35;101440.38;4995902;28;20390;-91
2023/01/11 09:13:04;;;;;;;5.10;1.48;;;;;;;6.16;75.05;101441.16;4996468;28;20121;-83
2023/01/11 09:15:29;;;;;;;2.60;1.85;;;;;;;6.15;74.29;101444.59;5016272;28;20493;-89
2023/01/11 09:17:55;;;;;;;3.13;2.03;;;;;;;6.56;80.38;101451.56;5012541;28;20029;-92
2023/01/11 09:20:21;;;;;;;2.30;1.52;;;;;;;6.57;74.33;101448.09;4986183;28;20030;-95
2023/01/11 09:22:50;;;;;;;3.42;2.05;;;;;;;6.40;73.06;101445.88;5011640;28;20041;-85
2023/01/11 09:25:17;;;;;;;1.05;0.95;;;;;;;6.37;73.72;101455.34;5009478;28;20018;-88
2023/01/11 09:27:46;;;;;;;4.88;2.97;;;;;;;6.40;73.42;101447.59;4998256;28;20665;-93
2023/01/11 09:30:12;;;;;;;4.32;2.78;;;;;;;6.42;74.93;101444.13;4995822;28;20022;-85
2023/01/11 09:32:38;;;;;;;10.50;1.95;;;;;;;6.56;73.20;101457.53;4961407;28;20050;-86
2023/01/11 09:35:05;;;;;;;4.65;2.28;;;;;;;6.38;73.36;101447.59;4994046;28;20041;-94
2023/01/11 09:37:30;;;;;;;2.38;2.17;;;;;;;6.33;73.72;101441.72;5001331;28;20058;-91
2023/01/11 09:40:00;;;;;;;8.38;2.80;;;;;;;6.28;74.32;101440.94;4981395;28;20503;-94
2023/01/11 09:42:30;;;;;;;3.97;2.10;;;;;;;6.41;73.87;101445.00;5001582;28;20568;-87
2023/01/11 09:44:59;;;;;;;2.60;2.33;;;;;;;6.44;73.54;101446.66;5034342;28;20032;-91
2023/01/11 09:47:32;;;;;;;1.77;1.58;;;;;;;6.42;72.85;101438.97;4984557;28;20629;-88
2023/01/11 09:50:00;;;;;;;3.85;2.10;;;;;;;6.40;73.71;101420.16;5011931;28;20049;-87
2023/01/11 09:52:31;;;;;;;5.22;3.05;;;;;;;6.57;73.76;101455.81;4996819;28;20385;-93
2023/01/11 09:54:57;;;;;;;8.10;2.08;;;;;;;6.52;73.09;101437.91;4995016;28;20120;-87
2023/01/11 09:57:26;;;;;;;5.32;1.40;;;;;;;6.57;73.24;101458.38;5005101;28;20137;-91
2023/01/11 10:00:15;;;;;;;3.13;1.73;;;;;;;6.61;72.93;101455.75;5031611;28;20034;-91
2023/01/11 10:03:15;;;;;;;2.20;1.88;;;;;;;6.41;73.70;101416.72;5000633;28;20042;-94
2023/01/11 10:05:48;;;;;;;4.45;2.20;;;;;;;6.45;73.54;101420.06;5011696;28;20026;-90
2023/01/11 10:08:16;;;;;;;;;;;;;;;6.73;73.46;101474.38;5015804;28;20148;-94
2023/01/11 10:10:52;;;;;;;4.30;1.33;;;;;;;6.62;73.40;101448.88;5030815;28;20394;-89
2023/01/11 10:13:59;;;;;;;1.83;1.20;;;;;;;6.74;72.86;101468.34;5007095;28;20040;-91
2023/01/11 10:16:43;;;;;;;2.63;1.55;;;;;;;6.66;72.29;101477.94;5010316;28;20018;-91
2023/01/11 10:19:23;;;;;;;1.73;0.95;;;;;;;6.39;72.28;101464.75;5016547;28;20492;-87
2023/01/11 10:22:00;;;;;;;5.80;2.40;;;;;;;6.50;73.54;101497.97;5016965;28;20036;-87
2023/01/11 10:24:32;;;;;;;1.70;1.60;;;;;;;6.50;72.33;101493.66;5011197;28;20488;-91
2023/01/11 10:27:00;;;;;;;4.28;3.55;;;;;;;6.64;72.63;101492.56;5027870;28;20047;-94
2023/01/11 10:36:20;;;;;;;2.88;1.63;;;;;;;6.70;74.24;101505.31;4996812;28;20127;-90
2023/01/11 10:39:45;;;;;;;5.35;3.25;;;;;;;6.67;73.76;101498.47;5009931;28;20037;-90
2023/01/11 10:42:14;;;;;;;3.08;2.03;;;;;;;6.50;74.33;101485.94;5018719;28;20040;-95
2023/01/11 10:44:40;;;;;;;6.97;3.88;;;;;;;6.63;74.18;101499.41;5009860;28;20124;-95
2023/01/11 10:47:10;;;;;;;4.78;3.63;;;;;;;6.54;74.94;101479.88;5016820;28;20030;-91
2023/01/11 10:50:02;;;;;;;5.20;2.85;;;;;;;6.66;73.16;101493.38;4998194;28;20125;-90
2023/01/11 10:52:54;;;;;;;1.88;1.55;;;;;;;6.66;73.50;101483.94;4996560;28;20493;-92
2023/01/11 10:55:40;;;;;;;2.13;1.65;;;;;;;6.78;73.87;101483.69;5006922;28;20038;-94
2023/01/11 10:58:24;;;;;;;5.63;2.72;;;;;;;6.81;74.63;101487.94;5004686;28;20038;-93
2023/01/11 11:01:15;;;;;;;2.42;1.95;;;;;;;6.84;74.88;101483.56;5013431;28;20037;-96
2023/01/11 11:04:02;;;;;;;3.53;2.58;;;;;;;6.74;73.67;101478.63;5012612;28;20377;-87
2023/01/11 11:06:41;;;;;;;4.10;2.22;;;;;;;6.56;74.99;101447.25;5013359;28;20527;-96
2023/01/11 11:09:44;;;;;;;5.60;2.65;;;;;;;6.73;73.67;101485.50;4982291;28;20041;-95
2023/01/11 11:12:30;;;;;;;2.35;1.92;;;;;;;6.63;74.14;101473.72;5006661;28;20052;-93
2023/01/11 11:15:03;;;;;;;3.63;2.83;;;;;;;6.74;75.13;101496.66;4994057;28;20037;-93
2023/01/11 11:17:33;;;;;;;4.35;2.55;;;;;;;6.64;74.99;101479.69;5011360;28;20032;-92
2023/01/11 11:19:59;;;;;;;8.13;4.45;;;;;;;6.75;75.32;101482.91;4995442;28;20038;-90
2023/01/11 11:22:24;;;;;;;7.30;5.05;;;;;;;6.78;74.27;101477.69;5012605;28;20029;-96
2023/01/11 11:25:02;;;;;;;3.85;2.53;;;;;;;6.82;74.77;101490.47;4999002;28;20038;-91
2023/01/11 11:27:39;;;;;;;6.18;3.85;;;;;;;6.88;75.18;101499.78;5009454;28;20112;-89
2023/01/11 11:30:05;;;;;;;5.57;1.98;;;;;;;6.56;74.23;101442.13;5010040;28;20516;-91
2023/01/11 11:32:35;;;;;;;2.95;2.17;;;;;;;6.93;74.76;101492.00;4978861;28;20046;-95
2023/01/11 11:35:01;;;;;;;7.53;4.13;;;;;;;7.04;74.71;101503.75;5013246;28;20030;-91
2023/01/11 11:37:44;;;;;;;3.40;2.17;;;;;;;6.97;73.03;101480.75;5011491;28;20085;-92
2023/01/11 11:40:36;;;;;;;4.22;2.20;;;;;;;6.97;73.44;101496.19;4991097;28;20485;-85
2023/01/11 11:43:22;;;;;;;8.02;5.80;;;;;;;7.05;73.59;101494.31;5010384;28;20037;-95
2023/01/11 11:45:58;;;;;;;6.35;2.10;;;;;;;7.01;73.25;101501.25;5011320;28;20036;-92
2023/01/11 11:48:25;;;;;;;2.78;1.77;;;;;;;7.05;74.24;101500.28;5008387;28;20073;-85
2023/01/11 11:50:51;;;;;;;3.75;2.08;;;;;;;6.95;73.36;101475.63;4992619;28;20026;-83
2023/01/11 11:53:29;;;;;;;4.05;2.47;;;;;;;7.03;72.91;101499.50;5010189;28;20026;-94
2023/01/11 11:55:58;;;;;;;2.78;2.20;;;;;;;6.99;73.14;101487.56;4994875;28;20088;-94
2023/01/11 11:58:24;;;;;;;2.47;2.05;;;;;;;7.11;73.18;101507.91;5010516;28;20418;-93
2023/01/11 12:00:50;;;;;;;8.55;2.67;;;;;;;7.07;73.89;101497.69;5009700;28;20034;-86
2023/01/11 12:03:17;;;;;;;3.25;2.35;;;;;;;6.93;73.54;101495.41;5000670;28;20056;-95
2023/01/11 12:05:59;;;;;;;5.30;3.30;;;;;;;7.05;73.21;101502.88;5012227;28;20076;-91
2023/01/11 12:08:24;;;;;;;6.38;2.17;;;;;;;7.00;73.57;101491.84;4994698;28;20080;-86
2023/01/11 12:10:56;;;;;;;4.30;2.38;;;;;;;7.14;73.85;101496.69;4993917;28;20464;-85
2023/01/11 12:13:26;;;;;;;4.45;3.08;;;;;;;7.31;72.75;101515.22;4994362;28;20417;-93
2023/01/11 12:16:00;;;;;;;5.47;3.50;;;;;;;7.22;73.10;101506.84;5006345;28;20515;-92
2023/01/11 12:18:32;;;;;;;8.85;3.85;;;;;;;7.40;72.99;101527.03;4996030;28;20038;-94
2023/01/11 12:21:20;;;;;;;3.65;2.95;;;;;;;7.31;73.00;101504.06;5010325;28;20026;-95
2023/01/11 12:23:47;;;;;;;4.30;2.67;;;;;;;7.36;71.79;101512.53;5009953;28;20511;-87
2023/01/11 12:26:33;;;;;;;3.08;2.15;;;;;;;7.02;71.23;101482.34;5013554;28;20493;-90
2023/01/11 12:29:34;;;;;;;4.57;2.22;;;;;;;7.40;71.44;101529.63;5010755;28;20053;-93
2023/01/11 12:32:21;;;;;;;1.85;1.20;;;;;;;7.41;71.22;101539.88;4990684;28;20511;-85
2023/01/11 12:35:20;;;;;;;7.80;2.47;;;;;;;7.39;71.24;101538.22;5025263;28;20024;-87
2023/01/11 12:37:56;;;;;;;2.00;1.20;;;;;;;7.22;71.40;101525.69;5030201;28;20052;-84
2023/01/11 12:40:39;;;;;;;2.40;1.40;;;;;;;7.31;71.94;101530.66;5029877;28;20033;-88